Weather History for KMLP - December, 2012

Change the Weather History Date:

Sunday, December 23, 2012

  Actual Average Record
Temperature  
Mean Temperature 22 °F -  
Max Temperature 26 °F - - ()
Min Temperature 19 °F - - ()
Degree Days  
Heating Degree Days 42    
Moisture  
Dew Point 20 °F    
Average Humidity 90    
Maximum Humidity 100    
Minimum Humidity 80    
Precipitation  
Precipitation 0.27 in - - ()
Sea Level Pressure  
Sea Level Pressure 29.74 in    
Wind  
Wind Speed 6 mph (SE)    
Max Wind Speed 12 mph    
Max Gust Speed 26 mph    
Visibility 6 miles    
Events Fog , Snow    
T = Trace of Precipitation, MM = Missing Value Source: NWS Daily Summary

Daily Weather History Graph

Daily Weather History Graph

Search for Another Location

Airport or City:

Trip Planner

Search our weather history database for the weather conditions in past years. The results will help you decide how hot, cold, wet, or windy it might be!

Date:

Astronomy

Dec. 23, 2012 Rise Set
Actual Time 7:28 AM PST 3:55 PM PST
Civil Twilight 6:52 AM PST 4:31 PM PST
Nautical Twilight 6:13 AM PST 5:10 PM PST
Astronomical Twilight 5:36 AM PST 5:48 PM PST
Moon 12:56 PM PST (12/23) 3:06 AM PST (12/23)
Length of Visible Light 9h 38m
Length of Day
8h 27m
Waxing Gibbous, 82% of the Moon is Illuminated
Dec 23
Waxing Gibbous
Dec 28
Full
Jan 4
Last Quarter
Jan 11
New
Jan 18
First Quarter

Hourly Weather History & Observations

Time (PST) Temp. Windchill Dew Point Humidity Pressure Visibility Wind Dir Wind Speed Gust Speed Precip Events Conditions
12:01 AM 24.8 °F 19.1 °F 21.2 °F 86% 29.71 in 10.0 mi Variable 4.6 mph - N/A   Overcast
12:53 AM 24.1 °F 16.0 °F 21.0 °F 88% 29.82 in 10.0 mi Variable 6.9 mph - N/A   Overcast
1:00 AM 24.8 °F 16.9 °F 21.2 °F 86% 29.73 in 10.0 mi Variable 6.9 mph - N/A   Mostly Cloudy
1:10 AM 24.8 °F 14.6 °F 21.2 °F 86% 29.73 in 10.0 mi SW 10.4 mph 19.6 mph N/A   Overcast
1:53 AM 24.1 °F 17.0 °F 21.0 °F 88% 29.84 in 10.0 mi SSW 5.8 mph - 0.00 in   Mostly Cloudy
2:37 AM 23.0 °F 15.8 °F 21.2 °F 93% 29.76 in 10.0 mi Variable 5.8 mph - 0.00 in   Mostly Cloudy
2:53 AM 23.0 °F 18.4 °F 21.0 °F 92% 29.85 in 9.0 mi Variable 3.5 mph - 0.00 in Snow Light Snow
3:16 AM 23.0 °F 17.0 °F 21.2 °F 93% 29.76 in 2.5 mi Variable 4.6 mph - 0.00 in Snow Light Snow
3:26 AM 23.0 °F 15.8 °F 21.2 °F 93% 29.75 in 1.2 mi SSE 5.8 mph - 0.00 in Snow Light Snow
3:36 AM 24.8 °F 17.9 °F 21.2 °F 86% 29.75 in 0.8 mi SSE 5.8 mph - 0.00 in Snow Light Snow
3:53 AM 24.1 °F 16.0 °F 21.9 °F 91% 29.85 in 0.5 mi Variable 6.9 mph - 0.02 in Fog , Snow Snow
4:08 AM 24.8 °F 17.9 °F 21.2 °F 86% 29.76 in 1.5 mi Variable 5.8 mph - 0.01 in Snow Light Snow
4:25 AM 24.8 °F 19.1 °F 21.2 °F 86% 29.77 in 1.2 mi Variable 4.6 mph - 0.01 in Snow Light Snow
4:29 AM 24.8 °F 19.1 °F 21.2 °F 86% 29.77 in 2.0 mi Variable 4.6 mph - 0.01 in Snow Light Snow
4:33 AM 24.8 °F 17.9 °F 21.2 °F 86% 29.77 in 4.0 mi SW 5.8 mph - 0.01 in Snow Light Snow
4:53 AM 24.1 °F 19.7 °F 21.0 °F 88% 29.86 in 9.0 mi Variable 3.5 mph - 0.01 in   Overcast
5:01 AM 23.0 °F 15.8 °F 19.4 °F 86% 29.77 in 10.0 mi Variable 5.8 mph - N/A   Overcast
5:48 AM 23.0 °F 14.7 °F 19.4 °F 86% 29.77 in 4.0 mi Variable 6.9 mph - 0.00 in Snow Light Snow
5:53 AM 23.0 °F 15.8 °F 19.9 °F 88% 29.88 in 3.0 mi Variable 5.8 mph - 0.00 in Snow Light Snow
6:15 AM 23.0 °F 17.0 °F 19.4 °F 86% 29.78 in 9.0 mi Variable 4.6 mph - 0.00 in   Overcast
6:53 AM 23.0 °F 18.4 °F 19.9 °F 88% 29.89 in 8.0 mi Variable 3.5 mph - 0.00 in   Overcast
7:53 AM 23.0 °F 17.0 °F 21.0 °F 92% 29.91 in 10.0 mi Variable 4.6 mph - N/A   Overcast
8:00 AM 23.0 °F 18.4 °F 21.2 °F 93% 29.79 in 9.0 mi Variable 3.5 mph - N/A   Overcast
8:17 AM 24.8 °F 19.1 °F 21.2 °F 86% 29.79 in 5.0 mi Variable 4.6 mph - 0.00 in Snow Light Snow
8:53 AM 24.1 °F 19.7 °F 19.9 °F 84% 29.91 in 10.0 mi Variable 3.5 mph - 0.00 in   Overcast
9:28 AM 24.8 °F 17.9 °F 21.2 °F 86% 29.79 in 2.5 mi Variable 5.8 mph - N/A   Overcast
9:32 AM 24.8 °F 19.1 °F 21.2 °F 86% 29.79 in 1.2 mi Variable 4.6 mph - N/A   Overcast
9:53 AM 24.1 °F 19.7 °F 21.0 °F 88% 29.91 in 1.2 mi Variable 3.5 mph - N/A   Overcast
10:07 AM 24.8 °F 19.1 °F 21.2 °F 86% 29.79 in 2.0 mi Variable 4.6 mph - N/A   Overcast
10:15 AM 24.8 °F - 21.2 °F 86% 29.79 in 10.0 mi Calm Calm - N/A   Overcast
10:53 AM 25.0 °F 19.3 °F 21.9 °F 88% 29.89 in 9.0 mi Variable 4.6 mph - N/A   Overcast
11:29 AM 26.6 °F - 21.2 °F 80% 29.76 in 10.0 mi Calm Calm - N/A   Overcast
11:53 AM 26.1 °F 21.9 °F 21.9 °F 84% 29.86 in 10.0 mi Variable 3.5 mph - N/A   Overcast
12:10 PM 26.6 °F 22.6 °F 21.2 °F 80% 29.74 in 10.0 mi Variable 3.5 mph - N/A   Overcast
12:53 PM 25.0 °F 16.3 °F 21.0 °F 85% 29.83 in 10.0 mi SSE 8.1 mph - N/A   Scattered Clouds
1:32 PM 24.8 °F 19.1 °F 19.4 °F 80% 29.69 in 10.0 mi Variable 4.6 mph - N/A   Partly Cloudy
1:53 PM 23.0 °F 13.9 °F 19.9 °F 88% 29.79 in 10.0 mi SE 8.1 mph - N/A   Partly Cloudy
2:53 PM 21.9 °F 13.4 °F 19.9 °F 92% 29.79 in 10.0 mi Variable 6.9 mph - N/A   Mostly Cloudy
3:01 PM 21.2 °F 12.6 °F 19.4 °F 93% 29.65 in 9.0 mi SE 6.9 mph 16.1 mph N/A   Mostly Cloudy
3:19 PM 21.2 °F 11.7 °F 19.4 °F 93% 29.65 in 10.0 mi SE 8.1 mph - N/A   Partly Cloudy
3:53 PM 21.0 °F 11.4 °F 19.9 °F 96% 29.76 in 10.0 mi SE 8.1 mph - N/A   Clear
4:53 PM 21.0 °F 10.6 °F 19.0 °F 92% 29.75 in 10.0 mi SE 9.2 mph 19.6 mph N/A   Mostly Cloudy
5:53 PM 21.0 °F 9.9 °F 19.0 °F 92% 29.72 in 10.0 mi SE 10.4 mph 19.6 mph N/A   Overcast
6:53 PM 21.0 °F 9.9 °F 19.0 °F 92% 29.68 in 10.0 mi SE 10.4 mph 18.4 mph N/A   Overcast
7:48 PM 21.2 °F 9.5 °F 17.6 °F 86% 29.53 in 1.2 mi SE 11.5 mph 26.5 mph 0.00 in Snow Light Snow
7:53 PM 21.0 °F 9.3 °F 19.0 °F 92% 29.66 in 1.0 mi SE 11.5 mph 26.5 mph 0.00 in Snow Light Snow
8:00 PM 21.2 °F 10.9 °F 19.4 °F 93% 29.53 in 0.8 mi SE 9.2 mph 24.2 mph 0.01 in Snow Light Snow
8:08 PM 19.4 °F 7.9 °F 19.4 °F 100% 29.53 in 0.5 mi SE 10.4 mph 19.6 mph 0.01 in Fog , Snow Snow
8:16 PM 19.4 °F 8.6 °F 19.4 °F 100% 29.52 in 0.2 mi SE 9.2 mph 24.2 mph 0.02 in Fog , Snow Snow
8:53 PM 19.9 °F 7.9 °F 19.0 °F 96% 29.65 in 0.2 mi ESE 11.5 mph 23.0 mph 0.06 in Fog , Snow Snow
9:39 PM 19.4 °F 7.2 °F 19.4 °F 100% 29.51 in 0.5 mi SE 11.5 mph 24.2 mph 0.05 in Fog , Snow Snow
9:53 PM 19.9 °F 7.9 °F 19.0 °F 96% 29.64 in 0.5 mi SE 11.5 mph 24.2 mph 0.06 in Fog , Snow Snow
10:11 PM 19.4 °F 7.2 °F 19.4 °F 100% 29.51 in 0.2 mi ESE 11.5 mph 18.4 mph 0.01 in Fog , Snow Snow
10:53 PM 19.9 °F 9.3 °F 19.0 °F 96% 29.63 in 0.2 mi SE 9.2 mph 18.4 mph 0.06 in Fog , Snow Snow
11:03 PM 19.4 °F 8.6 °F 19.4 °F 100% 29.51 in 0.5 mi SE 9.2 mph 23.0 mph 0.01 in Fog , Snow Snow
11:53 PM 19.9 °F 13.4 °F 19.9 °F 100% 29.65 in 0.5 mi Variable 4.6 mph - 0.06 in Fog , Snow Snow